Time;durP1;ratioP1;P1;durP2;ratioP2;P2;SDS_P1;SDS_P2;PMS_P1;PMS_P2;Temp;Humidity;BMP_temperature;BMP_pressure;BME280_temperature;BME280_humidity;BME280_pressure;Samples;Min_cycle;Max_cycle;Signal;HPM_P1;HPM_P2
2023/11/21 00:01:05;;;;;;;1.02;0.70;;;19.70;59.30;;;;;;5020196;28;20121;-67
2023/11/21 00:03:31;;;;;;;1.27;0.70;;;19.70;59.30;;;;;;5019149;28;20032;-68
2023/11/21 00:05:57;;;;;;;1.30;0.77;;;19.70;59.30;;;;;;5020551;28;20030;-67
2023/11/21 00:08:22;;;;;;;2.05;0.85;;;19.70;59.30;;;;;;5019753;28;20036;-67
2023/11/21 00:10:48;;;;;;;1.10;0.70;;;19.70;59.30;;;;;;5015436;28;20022;-68
2023/11/21 00:13:14;;;;;;;1.00;0.65;;;19.70;59.30;;;;;;5016148;28;20145;-67
2023/11/21 00:15:40;;;;;;;1.45;0.75;;;19.80;59.30;;;;;;5020276;28;20040;-67
2023/11/21 00:18:06;;;;;;;1.10;0.70;;;19.70;59.30;;;;;;5018814;28;20030;-68
2023/11/21 00:20:32;;;;;;;1.88;0.70;;;19.70;59.20;;;;;;5019299;28;20112;-67
2023/11/21 00:22:57;;;;;;;1.45;0.88;;;19.70;59.30;;;;;;5018306;28;20468;-68
2023/11/21 00:25:25;;;;;;;1.13;0.90;;;19.70;59.20;;;;;;5018845;28;20025;-67
2023/11/21 00:27:50;;;;;;;1.20;0.60;;;19.70;59.70;;;;;;5018066;28;20083;-68
2023/11/21 00:30:16;;;;;;;0.90;0.60;;;19.70;59.20;;;;;;5019380;28;20032;-67
2023/11/21 00:32:42;;;;;;;1.88;0.77;;;19.70;59.20;;;;;;5017932;28;20101;-67
2023/11/21 00:35:07;;;;;;;1.15;0.73;;;19.70;59.20;;;;;;5018784;28;20477;-69
2023/11/21 00:37:33;;;;;;;1.27;0.70;;;19.70;59.20;;;;;;4985944;28;20330;-68
2023/11/21 00:39:59;;;;;;;1.33;0.80;;;19.70;59.20;;;;;;5020318;28;20061;-67
2023/11/21 00:42:24;;;;;;;1.10;0.70;;;19.70;59.20;;;;;;5019310;28;20104;-67
2023/11/21 00:44:50;;;;;;;1.10;0.70;;;19.70;59.20;;;;;;5021649;28;20025;-67
2023/11/21 00:47:15;;;;;;;1.17;0.70;;;19.70;59.20;;;;;;5019757;28;20473;-67
2023/11/21 00:49:41;;;;;;;1.30;0.80;;;19.70;59.20;;;;;;5018134;28;20113;-67
2023/11/21 00:52:07;;;;;;;1.17;0.70;;;19.70;59.20;;;;;;5018963;28;20018;-67
2023/11/21 00:54:33;;;;;;;1.40;0.70;;;19.70;59.20;;;;;;5018678;28;20438;-67
2023/11/21 00:56:59;;;;;;;1.33;0.70;;;19.70;59.20;;;;;;5018524;28;20030;-67
2023/11/21 00:59:25;;;;;;;0.80;0.63;;;19.70;59.20;;;;;;5018166;28;20482;-67
2023/11/21 01:01:50;;;;;;;1.30;0.70;;;19.60;59.20;;;;;;5018978;28;20488;-67
2023/11/21 01:04:16;;;;;;;1.08;0.77;;;19.60;59.20;;;;;;5016415;28;20030;-67
2023/11/21 01:06:41;;;;;;;0.55;0.50;;;19.60;59.10;;;;;;5018543;28;20373;-67
2023/11/21 01:09:08;;;;;;;1.13;0.70;;;19.60;59.20;;;;;;5019600;28;20021;-67
2023/11/21 01:11:37;;;;;;;1.58;0.85;;;19.70;59.20;;;;;;5016027;28;20026;-67
2023/11/21 01:14:03;;;;;;;1.02;0.80;;;19.70;59.20;;;;;;5017366;28;20021;-67
2023/11/21 01:16:29;;;;;;;1.15;0.80;;;19.70;59.20;;;;;;5019277;28;20030;-67
2023/11/21 01:18:54;;;;;;;1.05;0.63;;;19.70;59.20;;;;;;5018349;28;21023;-67
2023/11/21 01:21:20;;;;;;;0.80;0.60;;;19.60;59.10;;;;;;5018798;28;20485;-67
2023/11/21 01:23:47;;;;;;;0.80;0.68;;;19.70;59.10;;;;;;5018713;28;20052;-67
2023/11/21 01:26:13;;;;;;;0.80;0.60;;;19.60;59.10;;;;;;5015010;28;20487;-66
2023/11/21 01:28:38;;;;;;;2.10;0.85;;;19.60;59.20;;;;;;5013636;28;20018;-66
2023/11/21 01:31:04;;;;;;;0.95;0.63;;;19.60;59.10;;;;;;5019054;28;20102;-66
2023/11/21 01:33:29;;;;;;;0.77;0.70;;;19.60;59.10;;;;;;5017712;28;20409;-66
2023/11/21 01:35:55;;;;;;;0.85;0.60;;;19.60;59.10;;;;;;5016384;28;20030;-67
2023/11/21 01:38:21;;;;;;;0.98;0.70;;;19.60;59.10;;;;;;5017512;28;20045;-67
2023/11/21 01:40:47;;;;;;;1.25;0.70;;;19.60;59.10;;;;;;5020484;28;20474;-66
2023/11/21 01:43:13;;;;;;;1.67;0.80;;;19.60;59.10;;;;;;5013841;28;20034;-66
2023/11/21 01:45:39;;;;;;;1.40;0.80;;;19.60;59.10;;;;;;5022938;28;20817;-65
2023/11/21 01:48:06;;;;;;;0.93;0.65;;;19.60;59.10;;;;;;5022165;28;20036;-66
2023/11/21 01:50:33;;;;;;;1.33;0.73;;;19.60;59.10;;;;;;5020848;28;20033;-66
2023/11/21 01:53:00;;;;;;;1.00;0.70;;;19.60;59.00;;;;;;5022254;28;20203;-65
2023/11/21 01:55:27;;;;;;;0.90;0.70;;;19.60;59.00;;;;;;5020125;28;20057;-66
2023/11/21 01:57:54;;;;;;;0.70;0.60;;;19.60;59.00;;;;;;5022555;28;20034;-67
2023/11/21 02:00:20;;;;;;;0.70;0.57;;;19.60;59.00;;;;;;5021021;28;20029;-65
2023/11/21 02:02:47;;;;;;;1.08;0.70;;;19.60;59.00;;;;;;5022372;28;20026;-66
2023/11/21 02:05:14;;;;;;;1.20;0.70;;;19.60;59.00;;;;;;5021925;28;20030;-65
2023/11/21 02:07:42;;;;;;;1.80;0.80;;;19.60;59.00;;;;;;5021441;28;20419;-66
2023/11/21 02:10:08;;;;;;;0.95;0.80;;;19.60;59.00;;;;;;5020733;28;20513;-66
2023/11/21 02:12:35;;;;;;;0.60;0.60;;;19.60;59.00;;;;;;5018127;28;20121;-66
2023/11/21 02:15:09;;;;;;;1.13;0.70;;;19.60;58.90;;;;;;5006973;28;20029;-67
2023/11/21 02:17:35;;;;;;;1.23;0.70;;;19.60;58.90;;;;;;5022602;28;20029;-67
2023/11/21 02:20:02;;;;;;;0.95;0.70;;;19.50;58.90;;;;;;5021245;28;20108;-66
2023/11/21 02:22:32;;;;;;;1.20;0.70;;;19.60;58.90;;;;;;5036223;28;20044;-66
2023/11/21 02:24:58;;;;;;;1.20;0.90;;;19.60;58.90;;;;;;5001680;28;20033;-66
2023/11/21 02:27:24;;;;;;;1.00;0.70;;;19.60;58.90;;;;;;5018147;28;20021;-67
2023/11/21 02:29:50;;;;;;;1.52;0.88;;;19.50;58.90;;;;;;5019663;28;20038;-67
2023/11/21 02:32:18;;;;;;;1.38;0.80;;;19.50;58.90;;;;;;5020781;28;20033;-67
2023/11/21 02:34:44;;;;;;;0.98;0.70;;;19.60;59.00;;;;;;5021125;28;20080;-67
2023/11/21 02:37:10;;;;;;;1.00;0.70;;;19.50;58.90;;;;;;5020581;28;20029;-67
2023/11/21 02:39:36;;;;;;;1.30;0.70;;;19.50;58.90;;;;;;5020151;28;20029;-67
2023/11/21 02:42:01;;;;;;;1.05;0.65;;;19.50;58.90;;;;;;5019343;28;20117;-67
2023/11/21 02:44:27;;;;;;;1.13;0.75;;;19.50;58.90;;;;;;5020523;28;20084;-68
2023/11/21 02:46:52;;;;;;;0.73;0.65;;;19.50;58.90;;;;;;5021293;28;20022;-67
2023/11/21 02:49:18;;;;;;;1.10;0.70;;;19.50;58.90;;;;;;5020897;28;20033;-67
2023/11/21 02:51:44;;;;;;;1.35;0.70;;;19.50;58.90;;;;;;5021998;28;20224;-67
2023/11/21 02:54:10;;;;;;;1.55;0.80;;;19.50;58.90;;;;;;5020961;28;20026;-67
2023/11/21 02:56:35;;;;;;;1.00;0.70;;;19.50;58.90;;;;;;5019318;28;20021;-69
2023/11/21 02:59:01;;;;;;;1.10;0.70;;;19.50;59.00;;;;;;5019507;28;20064;-70
2023/11/21 03:01:28;;;;;;;1.38;0.80;;;19.50;58.90;;;;;;5022606;28;20049;-69
2023/11/21 03:03:55;;;;;;;1.10;0.70;;;19.50;58.90;;;;;;5019670;28;20068;-70
2023/11/21 03:06:20;;;;;;;0.90;0.70;;;19.40;58.90;;;;;;5015089;28;20025;-69
2023/11/21 03:08:47;;;;;;;1.05;0.80;;;19.50;58.90;;;;;;5022976;28;20426;-69
2023/11/21 03:11:13;;;;;;;0.70;0.60;;;19.40;58.80;;;;;;5034073;28;20059;-70
2023/11/21 03:13:42;;;;;;;0.60;0.60;;;19.50;58.90;;;;;;5018881;28;20025;-69
2023/11/21 03:16:11;;;;;;;0.85;0.68;;;19.50;58.90;;;;;;5020797;28;20477;-69
2023/11/21 03:18:38;;;;;;;;;;;19.50;58.90;;;;;;5020719;28;20053;-69
2023/11/21 03:21:04;;;;;;;0.98;0.70;;;19.50;58.90;;;;;;5020844;28;20388;-70
2023/11/21 03:23:30;;;;;;;0.60;0.57;;;19.40;58.80;;;;;;5020300;28;20497;-69
2023/11/21 03:25:56;;;;;;;0.77;0.60;;;19.40;58.80;;;;;;5020224;28;20601;-69
2023/11/21 03:28:22;;;;;;;0.88;0.60;;;19.40;58.90;;;;;;5018537;28;20030;-70
2023/11/21 03:30:47;;;;;;;1.05;0.70;;;19.40;58.80;;;;;;5020751;28;20030;-70
2023/11/21 03:33:13;;;;;;;0.88;0.70;;;19.40;58.80;;;;;;5021292;28;20029;-70
2023/11/21 03:35:39;;;;;;;0.60;0.60;;;19.40;58.80;;;;;;5017385;28;20076;-70
2023/11/21 03:38:04;;;;;;;0.70;0.60;;;19.40;58.90;;;;;;5022422;28;20503;-66
2023/11/21 03:40:31;;;;;;;1.42;0.80;;;19.40;58.90;;;;;;5020027;28;20131;-67
2023/11/21 03:42:57;;;;;;;1.08;0.70;;;19.40;58.80;;;;;;5017794;28;20037;-67
2023/11/21 03:45:23;;;;;;;1.10;0.70;;;19.40;58.90;;;;;;5018896;28;20119;-66
2023/11/21 03:47:49;;;;;;;0.85;0.70;;;19.40;58.90;;;;;;5021745;28;20172;-66
2023/11/21 03:50:14;;;;;;;1.30;0.70;;;19.40;58.90;;;;;;5019737;28;20026;-65
2023/11/21 03:52:40;;;;;;;0.68;0.57;;;19.40;58.80;;;;;;5018361;28;20107;-65
2023/11/21 03:55:05;;;;;;;1.05;0.70;;;19.40;58.80;;;;;;5019569;28;20021;-66
2023/11/21 03:57:31;;;;;;;1.50;0.70;;;19.40;58.80;;;;;;5019152;28;20128;-66
2023/11/21 03:59:57;;;;;;;1.00;0.70;;;19.40;58.80;;;;;;5016684;28;20036;-66
2023/11/21 04:02:24;;;;;;;0.60;0.60;;;19.40;58.90;;;;;;5020375;28;20032;-66
2023/11/21 04:04:50;;;;;;;0.95;0.75;;;19.40;58.90;;;;;;5018638;28;20026;-65
2023/11/21 04:07:16;;;;;;;0.80;0.60;;;19.40;58.90;;;;;;5018628;28;20022;-66
2023/11/21 04:09:42;;;;;;;0.90;0.60;;;19.40;58.90;;;;;;5019559;28;20409;-66
2023/11/21 04:12:11;;;;;;;0.82;0.60;;;19.40;58.90;;;;;;5018304;28;20049;-66
2023/11/21 04:14:36;;;;;;;1.33;0.70;;;19.40;58.90;;;;;;5016612;28;20069;-65
2023/11/21 04:17:03;;;;;;;0.88;0.60;;;19.40;58.90;;;;;;5019451;28;20037;-65
2023/11/21 04:19:29;;;;;;;1.52;0.70;;;19.40;58.90;;;;;;5018702;28;20243;-66
2023/11/21 04:21:55;;;;;;;1.05;0.90;;;19.40;58.90;;;;;;5019442;28;20022;-67
2023/11/21 04:24:21;;;;;;;0.85;0.70;;;19.40;58.90;;;;;;5019383;28;20056;-65
2023/11/21 04:26:46;;;;;;;0.60;0.55;;;19.40;58.90;;;;;;5018168;28;20109;-66
2023/11/21 04:29:12;;;;;;;0.57;0.55;;;19.40;59.00;;;;;;5017970;28;20025;-66
2023/11/21 04:31:38;;;;;;;0.93;0.65;;;19.40;58.90;;;;;;5020519;28;20088;-65
2023/11/21 04:34:04;;;;;;;1.05;0.70;;;19.40;59.00;;;;;;5019091;28;20048;-66
2023/11/21 04:36:34;;;;;;;1.38;0.80;;;19.40;58.90;;;;;;5019065;28;20022;-66
2023/11/21 04:39:00;;;;;;;1.02;0.68;;;19.40;58.90;;;;;;5019769;28;20448;-65
2023/11/21 04:41:26;;;;;;;1.35;0.80;;;19.40;58.90;;;;;;5019598;28;20030;-66
2023/11/21 04:43:51;;;;;;;1.27;0.68;;;19.40;59.00;;;;;;5016896;28;20035;-66
2023/11/21 04:46:17;;;;;;;1.33;0.70;;;19.40;59.00;;;;;;5018859;28;20094;-66
2023/11/21 04:48:43;;;;;;;0.95;0.80;;;19.40;59.00;;;;;;5001529;28;20109;-69
2023/11/21 04:51:08;;;;;;;0.70;0.60;;;19.30;58.90;;;;;;5018250;28;20026;-70
2023/11/21 04:53:34;;;;;;;1.08;0.60;;;19.30;58.90;;;;;;5021109;28;20033;-69
2023/11/21 04:56:00;;;;;;;1.38;0.95;;;19.30;59.00;;;;;;5018317;28;20034;-68
2023/11/21 04:58:26;;;;;;;0.80;0.52;;;19.30;59.00;;;;;;5014897;28;20025;-66
2023/11/21 05:00:51;;;;;;;0.98;0.60;;;19.30;59.00;;;;;;5018364;28;20117;-66
2023/11/21 05:03:17;;;;;;;0.80;0.70;;;19.30;59.00;;;;;;5019587;28;20022;-66
2023/11/21 05:05:42;;;;;;;0.82;0.55;;;19.30;59.00;;;;;;5018494;28;20018;-66
2023/11/21 05:08:08;;;;;;;0.90;0.60;;;19.40;59.10;;;;;;5019557;28;20389;-66
2023/11/21 05:10:34;;;;;;;0.73;0.50;;;19.30;59.10;;;;;;5018848;28;20034;-66
2023/11/21 05:12:59;;;;;;;1.10;0.70;;;19.30;59.10;;;;;;5034784;28;20567;-65
2023/11/21 05:15:27;;;;;;;0.80;0.60;;;19.30;59.10;;;;;;5017039;28;20103;-66
2023/11/21 05:17:53;;;;;;;0.77;0.68;;;19.30;59.10;;;;;;5018188;28;20084;-66
2023/11/21 05:20:21;;;;;;;1.08;0.70;;;19.30;59.10;;;;;;5018005;28;20049;-67
2023/11/21 05:22:49;;;;;;;0.75;0.60;;;19.30;59.10;;;;;;5019262;28;20076;-67
2023/11/21 05:25:18;;;;;;;0.70;0.55;;;19.30;59.10;;;;;;5019250;28;20087;-67
2023/11/21 05:27:45;;;;;;;1.23;0.77;;;19.30;59.20;;;;;;5018378;28;20435;-67
2023/11/21 05:30:11;;;;;;;1.23;0.80;;;19.30;59.20;;;;;;5016403;28;20041;-67
2023/11/21 05:32:37;;;;;;;0.80;0.50;;;19.30;59.10;;;;;;5017065;28;20438;-67
2023/11/21 05:35:03;;;;;;;0.63;0.60;;;19.30;59.20;;;;;;5017386;28;20100;-66
2023/11/21 05:37:29;;;;;;;0.93;0.80;;;19.30;59.20;;;;;;5017913;28;20105;-67
2023/11/21 05:39:59;;;;;;;0.75;0.65;;;19.30;59.20;;;;;;5018223;28;20131;-67
2023/11/21 05:42:25;;;;;;;0.85;0.70;;;19.30;59.20;;;;;;5018569;28;20021;-66
2023/11/21 05:44:50;;;;;;;0.80;0.60;;;19.20;59.20;;;;;;5016497;28;20034;-67
2023/11/21 05:47:17;;;;;;;0.73;0.63;;;19.30;59.20;;;;;;5017377;28;20026;-66
2023/11/21 05:49:42;;;;;;;0.68;0.55;;;19.30;59.20;;;;;;5015764;28;20039;-66
2023/11/21 05:52:08;;;;;;;0.70;0.60;;;19.30;59.30;;;;;;5017369;28;20108;-66
2023/11/21 05:54:33;;;;;;;1.02;0.60;;;19.20;59.20;;;;;;5018145;28;20037;-67
2023/11/21 05:57:00;;;;;;;0.73;0.60;;;19.30;59.30;;;;;;5017978;28;20402;-66
2023/11/21 05:59:25;;;;;;;0.98;0.70;;;19.20;59.20;;;;;;5015638;28;20026;-67
2023/11/21 06:01:51;;;;;;;0.65;0.60;;;19.20;59.20;;;;;;5016318;28;20033;-67
2023/11/21 06:04:18;;;;;;;0.75;0.60;;;19.20;59.30;;;;;;5017891;28;20020;-67
2023/11/21 06:06:44;;;;;;;1.15;0.70;;;19.20;59.30;;;;;;5017356;28;20029;-67
2023/11/21 06:09:09;;;;;;;0.82;0.73;;;19.20;59.30;;;;;;5019134;28;20026;-69
2023/11/21 06:11:35;;;;;;;0.70;0.60;;;19.20;59.20;;;;;;5018124;28;20203;-69
2023/11/21 06:14:02;;;;;;;1.23;0.70;;;19.20;59.30;;;;;;5015648;28;20470;-70
2023/11/21 06:16:27;;;;;;;0.70;0.50;;;19.20;59.30;;;;;;5030756;28;20517;-70
2023/11/21 06:18:53;;;;;;;0.75;0.60;;;19.20;59.30;;;;;;5018311;28;20171;-69
2023/11/21 06:21:19;;;;;;;0.90;0.70;;;19.20;59.30;;;;;;5018538;28;20025;-70
2023/11/21 06:23:44;;;;;;;0.88;0.60;;;19.20;59.30;;;;;;5017627;28;20033;-69
2023/11/21 06:26:10;;;;;;;0.70;0.60;;;19.20;59.30;;;;;;5019004;28;20036;-70
2023/11/21 06:28:36;;;;;;;0.82;0.65;;;19.20;59.30;;;;;;5017646;28;20442;-66
2023/11/21 06:31:04;;;;;;;0.73;0.70;;;19.20;59.30;;;;;;5019546;28;20099;-66
2023/11/21 06:33:31;;;;;;;1.00;0.70;;;19.20;59.30;;;;;;5023529;28;20056;-67
2023/11/21 06:35:57;;;;;;;1.38;0.75;;;19.20;59.30;;;;;;5021118;28;20346;-66
2023/11/21 06:38:23;;;;;;;0.55;0.52;;;19.20;59.30;;;;;;5021643;28;20026;-66
2023/11/21 06:40:48;;;;;;;0.73;0.55;;;19.20;59.30;;;;;;5020411;28;20034;-66
2023/11/21 06:43:15;;;;;;;1.10;0.70;;;19.20;59.30;;;;;;5021591;28;20271;-66
2023/11/21 06:45:41;;;;;;;1.08;0.70;;;19.20;59.30;;;;;;5019103;28;20018;-65
2023/11/21 06:48:06;;;;;;;1.05;0.70;;;19.20;59.30;;;;;;5020619;28;20028;-66
2023/11/21 06:50:32;;;;;;;1.40;0.80;;;19.20;59.30;;;;;;5019640;28;20105;-66
2023/11/21 06:52:58;;;;;;;0.70;0.70;;;19.20;59.20;;;;;;5020962;28;20493;-66
2023/11/21 06:55:23;;;;;;;1.23;0.70;;;19.20;59.30;;;;;;5022614;28;20462;-66
2023/11/21 06:57:49;;;;;;;1.02;0.65;;;19.30;59.30;;;;;;5013290;28;20446;-65
2023/11/21 07:00:17;;;;;;;0.75;0.60;;;19.30;59.30;;;;;;5017929;28;20026;-66
2023/11/21 07:02:43;;;;;;;0.73;0.63;;;19.30;59.30;;;;;;5019115;28;20088;-65
2023/11/21 07:05:09;;;;;;;0.70;0.70;;;19.30;59.30;;;;;;5021929;28;20466;-66
2023/11/21 07:07:36;;;;;;;2.22;0.70;;;19.30;59.30;;;;;;5020798;28;20096;-68
2023/11/21 07:10:03;;;;;;;1.20;0.60;;;19.30;59.30;;;;;;5021045;28;20034;-69
2023/11/21 07:12:31;;;;;;;0.85;0.63;;;19.30;59.30;;;;;;5020288;28;20025;-70
2023/11/21 07:14:57;;;;;;;1.20;0.70;;;19.30;59.30;;;;;;5018352;28;20025;-70
2023/11/21 07:17:23;;;;;;;1.77;0.80;;;19.30;59.30;;;;;;5019961;28;20034;-69
2023/11/21 07:19:49;;;;;;;0.65;0.55;;;19.30;59.30;;;;;;5018756;28;20091;-67
2023/11/21 07:22:21;;;;;;;0.55;0.50;;;19.20;59.20;;;;;;5021889;28;20433;-66
2023/11/21 07:24:49;;;;;;;0.93;0.60;;;19.30;59.30;;;;;;5021041;28;20025;-67
2023/11/21 07:27:15;;;;;;;1.00;0.80;;;19.30;59.30;;;;;;5019134;28;20025;-67
2023/11/21 07:29:41;;;;;;;1.13;0.68;;;19.30;59.30;;;;;;5018089;28;20503;-67
2023/11/21 07:32:09;;;;;;;1.20;0.75;;;19.30;59.30;;;;;;5019421;28;20026;-66
2023/11/21 07:34:34;;;;;;;1.35;0.63;;;19.30;59.30;;;;;;5019799;28;20105;-66
2023/11/21 07:37:00;;;;;;;0.98;0.65;;;19.30;59.30;;;;;;5021519;28;20112;-67
2023/11/21 07:39:26;;;;;;;1.00;0.70;;;19.30;59.30;;;;;;5019600;28;20100;-67
2023/11/21 07:41:51;;;;;;;1.08;0.70;;;19.30;59.30;;;;;;5019863;28;20030;-67
2023/11/21 07:44:17;;;;;;;0.88;0.60;;;19.30;59.30;;;;;;5019086;28;20520;-68
2023/11/21 07:46:44;;;;;;;0.95;0.70;;;19.30;59.30;;;;;;5001958;28;20025;-67
2023/11/21 07:49:09;;;;;;;0.80;0.65;;;19.30;59.20;;;;;;5017505;28;20897;-67
2023/11/21 07:51:35;;;;;;;1.13;0.60;;;19.30;59.20;;;;;;5021315;28;20155;-67
2023/11/21 07:54:01;;;;;;;0.88;0.63;;;19.30;59.30;;;;;;5019900;28;20036;-67
2023/11/21 07:56:27;;;;;;;0.77;0.60;;;19.30;59.30;;;;;;5033945;28;20137;-67
2023/11/21 07:58:52;;;;;;;0.70;0.60;;;19.30;59.20;;;;;;5020328;28;20116;-67
2023/11/21 08:01:18;;;;;;;1.08;0.70;;;19.30;59.30;;;;;;5015777;28;20493;-67
2023/11/21 08:03:44;;;;;;;1.35;0.63;;;19.30;59.20;;;;;;5020447;28;20033;-67
2023/11/21 08:06:09;;;;;;;1.20;0.80;;;19.30;59.30;;;;;;5019344;28;20456;-67
2023/11/21 08:08:35;;;;;;;1.52;0.80;;;19.30;59.20;;;;;;5021648;28;20028;-68
2023/11/21 08:11:01;;;;;;;0.60;0.50;;;19.30;59.20;;;;;;5018762;28;20025;-67
2023/11/21 08:13:28;;;;;;;1.40;0.90;;;19.30;59.20;;;;;;5034909;28;20029;-67
2023/11/21 08:15:55;;;;;;;0.95;0.70;;;19.30;59.20;;;;;;5017392;28;20120;-67
2023/11/21 08:18:21;;;;;;;3.42;1.50;;;19.30;59.20;;;;;;5020299;28;20030;-67
2023/11/21 08:20:47;;;;;;;1.00;0.70;;;19.30;59.20;;;;;;5018417;28;20041;-67
2023/11/21 08:23:15;;;;;;;1.42;0.70;;;19.30;59.20;;;;;;5018949;28;20018;-67
2023/11/21 08:25:42;;;;;;;1.30;0.70;;;19.30;59.20;;;;;;5018935;28;20038;-67
2023/11/21 08:28:07;;;;;;;0.68;0.60;;;19.20;59.20;;;;;;5018679;28;20025;-67
2023/11/21 08:30:34;;;;;;;0.88;0.70;;;19.30;59.30;;;;;;5019596;28;20084;-67
2023/11/21 08:33:00;;;;;;;0.82;0.60;;;19.20;59.20;;;;;;5019999;28;20043;-66
2023/11/21 08:35:26;;;;;;;1.52;0.82;;;19.30;59.20;;;;;;5018767;28;20029;-67
2023/11/21 08:37:52;;;;;;;0.95;0.60;;;19.20;59.20;;;;;;5019063;28;20101;-66
2023/11/21 08:40:19;;;;;;;0.77;0.60;;;19.20;59.20;;;;;;5019505;28;20017;-67
2023/11/21 08:42:45;;;;;;;1.20;0.70;;;19.20;59.20;;;;;;5019024;28;20025;-66
2023/11/21 08:45:12;;;;;;;0.73;0.60;;;19.20;59.20;;;;;;5017803;28;20602;-66
2023/11/21 08:47:38;;;;;;;0.80;0.60;;;19.20;59.20;;;;;;5017139;28;20101;-67
2023/11/21 08:50:07;;;;;;;1.10;0.70;;;19.20;59.20;;;;;;5018585;28;20026;-66
2023/11/21 08:52:33;;;;;;;0.70;0.60;;;19.20;59.30;;;;;;5016482;28;20365;-68
2023/11/21 08:55:02;;;;;;;1.13;0.75;;;19.20;59.20;;;;;;5018040;28;20135;-67
2023/11/21 08:57:28;;;;;;;0.93;0.60;;;19.20;59.20;;;;;;5017693;28;20026;-66
2023/11/21 08:59:55;;;;;;;0.90;0.63;;;19.20;59.20;;;;;;5018880;28;20088;-66
2023/11/21 09:02:23;;;;;;;0.90;0.63;;;19.20;59.30;;;;;;5015767;28;20033;-67
2023/11/21 09:04:48;;;;;;;1.15;0.60;;;19.20;59.20;;;;;;5017767;28;20045;-67
2023/11/21 09:07:15;;;;;;;0.73;0.60;;;19.20;59.30;;;;;;5016592;28;20061;-66
2023/11/21 09:09:40;;;;;;;1.00;0.70;;;19.20;59.30;;;;;;5018849;28;20438;-67
2023/11/21 09:12:06;;;;;;;0.75;0.63;;;19.20;59.30;;;;;;5018874;28;20057;-67
2023/11/21 09:14:32;;;;;;;1.38;0.70;;;19.20;59.20;;;;;;5018783;28;20098;-66
2023/11/21 09:16:57;;;;;;;0.90;0.60;;;19.20;59.30;;;;;;5017700;28;20022;-66
2023/11/21 09:19:23;;;;;;;1.13;0.70;;;19.20;59.30;;;;;;5016929;28;20031;-67
2023/11/21 09:21:49;;;;;;;0.60;0.60;;;19.20;59.30;;;;;;5018687;28;20084;-66
2023/11/21 09:24:14;;;;;;;0.77;0.60;;;19.20;59.30;;;;;;5000645;28;20053;-66
2023/11/21 09:26:41;;;;;;;0.80;0.70;;;19.20;59.30;;;;;;5017919;28;20088;-66
2023/11/21 09:29:08;;;;;;;0.93;0.60;;;19.20;59.30;;;;;;5018921;28;20413;-65
2023/11/21 09:31:33;;;;;;;0.85;0.60;;;19.20;59.30;;;;;;5030983;28;20040;-66
2023/11/21 09:33:59;;;;;;;0.70;0.60;;;19.20;59.30;;;;;;5016563;28;20029;-66
2023/11/21 09:36:27;;;;;;;0.98;0.60;;;19.20;59.40;;;;;;5018798;28;20021;-66
2023/11/21 09:38:55;;;;;;;1.08;0.60;;;19.20;59.30;;;;;;5020404;28;20430;-66
2023/11/21 09:41:34;;;;;;;1.67;0.60;;;19.20;59.40;;;;;;5017069;28;20034;-67
2023/11/21 09:44:04;;;;;;;0.88;0.70;;;19.20;59.30;;;;;;5017058;28;20038;-67
2023/11/21 09:46:31;;;;;;;0.88;0.70;;;19.20;59.30;;;;;;5018347;28;20017;-67
2023/11/21 09:49:04;;;;;;;0.90;0.70;;;19.20;59.30;;;;;;5018604;28;20478;-67
2023/11/21 09:51:33;;;;;;;0.77;0.60;;;19.20;59.30;;;;;;5015315;28;20392;-67
2023/11/21 09:54:06;;;;;;;0.75;0.70;;;19.20;59.30;;;;;;5018550;28;20377;-67
2023/11/21 09:56:32;;;;;;;0.90;0.60;;;19.20;59.40;;;;;;5017453;28;20092;-67
2023/11/21 09:59:03;;;;;;;0.80;0.60;;;19.20;59.30;;;;;;5017106;28;20033;-66
2023/11/21 10:01:30;;;;;;;0.80;0.50;;;19.20;59.30;;;;;;4981255;28;20109;-66
2023/11/21 10:03:56;;;;;;;0.57;0.50;;;19.20;59.30;;;;;;5019721;28;20446;-66
2023/11/21 10:06:25;;;;;;;0.90;0.55;;;19.20;59.40;;;;;;5021368;28;20093;-66
2023/11/21 10:08:51;;;;;;;1.38;0.68;;;19.20;59.30;;;;;;5022538;28;20025;-67
2023/11/21 10:11:19;;;;;;;0.88;0.70;;;19.20;59.40;;;;;;5020835;28;20414;-66
2023/11/21 10:13:46;;;;;;;1.10;0.70;;;19.20;59.40;;;;;;5021357;28;20028;-66
2023/11/21 10:16:16;;;;;;;0.80;0.60;;;19.20;59.40;;;;;;5020370;28;20108;-66
2023/11/21 10:18:44;;;;;;;1.15;0.60;;;19.20;59.40;;;;;;5021893;28;20481;-66
2023/11/21 10:21:11;;;;;;;1.02;0.73;;;19.20;59.40;;;;;;5021066;28;20047;-66
2023/11/21 10:23:36;;;;;;;0.60;0.60;;;19.20;59.40;;;;;;5020647;28;20025;-66
2023/11/21 10:26:03;;;;;;;0.68;0.50;;;19.20;59.40;;;;;;5022011;28;20401;-66
2023/11/21 10:28:29;;;;;;;0.80;0.68;;;19.20;59.40;;;;;;5020624;28;20492;-66
2023/11/21 10:30:56;;;;;;;0.60;0.50;;;19.20;59.40;;;;;;5019884;28;20096;-66
2023/11/21 10:33:28;;;;;;;0.70;0.50;;;19.20;59.40;;;;;;5020886;28;20046;-67
2023/11/21 10:35:54;;;;;;;0.52;0.45;;;19.20;59.40;;;;;;5021660;28;20032;-66
2023/11/21 10:38:23;;;;;;;1.00;0.60;;;19.20;59.40;;;;;;5019655;28;20034;-65
2023/11/21 10:40:49;;;;;;;1.07;0.70;;;19.20;59.40;;;;;;5022634;28;20021;-67
2023/11/21 10:43:15;;;;;;;0.98;0.75;;;19.20;59.40;;;;;;5020764;28;20032;-67
2023/11/21 10:45:42;;;;;;;1.25;0.55;;;19.20;59.40;;;;;;5020529;28;20100;-67
2023/11/21 10:48:15;;;;;;;0.82;0.60;;;19.20;59.40;;;;;;5032372;28;20034;-67
2023/11/21 10:50:41;;;;;;;0.55;0.55;;;19.20;59.40;;;;;;5036477;28;20537;-66
2023/11/21 10:53:07;;;;;;;0.93;0.70;;;19.20;59.40;;;;;;5019667;28;20143;-66
2023/11/21 10:55:34;;;;;;;1.13;0.57;;;19.20;59.40;;;;;;5022605;28;20053;-66
2023/11/21 10:58:03;;;;;;;0.80;0.60;;;19.20;59.30;;;;;;5021617;28;20065;-66
2023/11/21 11:00:29;;;;;;;0.82;0.63;;;19.20;59.30;;;;;;5020473;28;20534;-66
2023/11/21 11:02:55;;;;;;;1.27;0.60;;;19.20;59.30;;;;;;5018107;28;20493;-66
2023/11/21 11:05:26;;;;;;;0.70;0.60;;;19.20;59.40;;;;;;5018399;28;20030;-66
2023/11/21 11:08:05;;;;;;;0.77;0.60;;;19.20;59.30;;;;;;5019141;28;20076;-66
2023/11/21 11:10:32;;;;;;;0.70;0.50;;;19.20;59.40;;;;;;5020475;28;20477;-66
2023/11/21 11:12:58;;;;;;;0.90;0.60;;;19.20;59.30;;;;;;5019710;28;20422;-66
2023/11/21 11:15:26;;;;;;;0.60;0.50;;;19.20;59.30;;;;;;5022608;28;20022;-66
2023/11/21 11:17:52;;;;;;;0.80;0.60;;;19.20;59.30;;;;;;5019294;28;20025;-65
2023/11/21 11:20:20;;;;;;;1.02;0.70;;;19.20;59.30;;;;;;5020571;28;20025;-66
2023/11/21 11:23:13;;;;;;;1.20;0.55;;;19.20;59.30;;;;;;5018226;28;20056;-66
2023/11/21 11:25:49;;;;;;;0.68;0.60;;;19.20;59.30;;;;;;5021616;28;20397;-67
2023/11/21 11:28:20;;;;;;;0.82;0.57;;;19.20;59.20;;;;;;5019657;28;20018;-66
2023/11/21 11:31:11;;;;;;;0.77;0.60;;;19.20;59.20;;;;;;5003233;28;20485;-65
2023/11/21 11:33:58;;;;;;;1.23;0.70;;;19.20;59.20;;;;;;5018448;28;20036;-66
2023/11/21 11:36:24;;;;;;;0.70;0.60;;;19.20;59.20;;;;;;5017794;28;20030;-66
2023/11/21 11:38:49;;;;;;;0.73;0.60;;;19.20;59.20;;;;;;5020397;28;20112;-65
2023/11/21 11:41:25;;;;;;;0.95;0.50;;;19.20;59.20;;;;;;5003925;28;20029;-66
2023/11/21 11:43:51;;;;;;;0.88;0.60;;;19.30;59.30;;;;;;5018560;28;20037;-65
2023/11/21 11:46:18;;;;;;;0.85;0.63;;;19.20;59.20;;;;;;5018451;28;20026;-66
2023/11/21 11:48:45;;;;;;;1.10;0.57;;;19.20;59.20;;;;;;5019918;28;20480;-66
2023/11/21 11:51:16;;;;;;;0.98;0.63;;;19.30;59.20;;;;;;5022041;28;20426;-69
2023/11/21 11:53:46;;;;;;;0.77;0.60;;;19.20;59.20;;;;;;5020933;28;20507;-69
2023/11/21 11:56:37;;;;;;;0.40;0.40;;;19.30;59.20;;;;;;5019032;28;20107;-69
2023/11/21 11:59:03;;;;;;;0.77;0.52;;;19.30;59.20;;;;;;5014308;28;20046;-69
2023/11/21 12:01:32;;;;;;;0.57;0.50;;;19.30;59.20;;;;;;5019454;28;20425;-67
2023/11/21 12:04:20;;;;;;;0.63;0.60;;;19.30;59.20;;;;;;5020092;28;20431;-66
2023/11/21 12:06:46;;;;;;;1.02;0.68;;;19.30;59.20;;;;;;5020045;28;20032;-67
2023/11/21 12:09:24;;;;;;;1.00;0.60;;;19.30;59.20;;;;;;5019020;28;20108;-66
2023/11/21 12:11:52;;;;;;;0.82;0.60;;;19.30;59.20;;;;;;5019479;28;20022;-67
2023/11/21 12:14:18;;;;;;;0.70;0.55;;;19.30;59.20;;;;;;5019859;28;20029;-66
2023/11/21 12:16:44;;;;;;;0.85;0.65;;;19.30;59.20;;;;;;5017772;28;20358;-66
2023/11/21 12:19:11;;;;;;;0.80;0.70;;;19.30;59.20;;;;;;5019746;28;20588;-66
2023/11/21 12:21:37;;;;;;;0.60;0.50;;;19.30;59.10;;;;;;5016093;28;20033;-66
2023/11/21 12:24:04;;;;;;;0.80;0.60;;;19.30;59.10;;;;;;5017391;28;20500;-66
2023/11/21 12:26:29;;;;;;;0.65;0.60;;;19.30;59.20;;;;;;5017427;28;20025;-67
2023/11/21 12:28:58;;;;;;;0.52;0.52;;;19.30;59.10;;;;;;5019747;28;20370;-66
2023/11/21 12:31:23;;;;;;;1.05;0.68;;;19.30;59.10;;;;;;5019072;28;20056;-66
2023/11/21 12:33:50;;;;;;;1.13;0.70;;;19.30;59.10;;;;;;5018135;28;20449;-67
2023/11/21 12:36:16;;;;;;;0.70;0.50;;;19.30;59.20;;;;;;5018478;28;20029;-66
2023/11/21 12:38:42;;;;;;;0.73;0.50;;;19.30;59.20;;;;;;5018241;28;20366;-66
2023/11/21 12:41:11;;;;;;;0.80;0.52;;;19.30;59.10;;;;;;5017884;28;20360;-65
2023/11/21 12:43:38;;;;;;;1.73;0.70;;;19.30;59.10;;;;;;5020151;28;20489;-66
2023/11/21 12:46:11;;;;;;;0.80;0.55;;;19.30;59.10;;;;;;5018659;28;20105;-66